sensor_id;sensor_type;location;lat;lon;timestamp;temperature;humidity
24632;DHT22;59977;48.782;9.190;2024-02-21T00:02:08;8.50;99.90
24632;DHT22;59977;48.782;9.190;2024-02-21T00:04:34;8.70;99.90
24632;DHT22;59977;48.782;9.190;2024-02-21T00:07:00;8.50;99.90
24632;DHT22;59977;48.782;9.190;2024-02-21T00:09:26;8.50;99.90
24632;DHT22;59977;48.782;9.190;2024-02-21T00:11:51;8.50;99.90
24632;DHT22;59977;48.782;9.190;2024-02-21T00:14:17;8.50;99.90
24632;DHT22;59977;48.782;9.190;2024-02-21T00:16:42;8.50;99.90
24632;DHT22;59977;48.782;9.190;2024-02-21T00:19:08;8.50;99.90
24632;DHT22;59977;48.782;9.190;2024-02-21T00:21:34;8.60;99.90
24632;DHT22;59977;48.782;9.190;2024-02-21T00:23:59;8.50;99.90
24632;DHT22;59977;48.782;9.190;2024-02-21T00:26:25;8.60;99.90
24632;DHT22;59977;48.782;9.190;2024-02-21T00:28:51;8.60;99.90
24632;DHT22;59977;48.782;9.190;2024-02-21T00:31:16;8.60;99.90
24632;DHT22;59977;48.782;9.190;2024-02-21T00:33:42;8.60;99.90
24632;DHT22;59977;48.782;9.190;2024-02-21T00:36:07;8.70;99.90
24632;DHT22;59977;48.782;9.190;2024-02-21T00:38:33;8.70;99.90
24632;DHT22;59977;48.782;9.190;2024-02-21T00:40:59;8.70;99.90
24632;DHT22;59977;48.782;9.190;2024-02-21T00:43:24;8.70;99.90
24632;DHT22;59977;48.782;9.190;2024-02-21T00:45:50;8.70;99.90
24632;DHT22;59977;48.782;9.190;2024-02-21T00:48:16;8.70;99.90
24632;DHT22;59977;48.782;9.190;2024-02-21T00:50:41;8.60;99.90
24632;DHT22;59977;48.782;9.190;2024-02-21T00:53:07;8.70;99.90
24632;DHT22;59977;48.782;9.190;2024-02-21T00:55:33;8.70;99.90
24632;DHT22;59977;48.782;9.190;2024-02-21T00:57:59;8.60;99.90
24632;DHT22;59977;48.782;9.190;2024-02-21T01:00:25;8.70;99.90
24632;DHT22;59977;48.782;9.190;2024-02-21T01:02:50;8.60;99.90
24632;DHT22;59977;48.782;9.190;2024-02-21T01:05:16;8.60;99.90
24632;DHT22;59977;48.782;9.190;2024-02-21T01:07:41;8.60;99.90
24632;DHT22;59977;48.782;9.190;2024-02-21T01:10:07;8.50;99.90
24632;DHT22;59977;48.782;9.190;2024-02-21T01:12:33;8.50;99.90
24632;DHT22;59977;48.782;9.190;2024-02-21T01:14:58;8.50;99.90
24632;DHT22;59977;48.782;9.190;2024-02-21T01:17:24;8.50;99.90
24632;DHT22;59977;48.782;9.190;2024-02-21T01:19:50;8.50;99.90
24632;DHT22;59977;48.782;9.190;2024-02-21T01:22:15;8.50;99.90
24632;DHT22;59977;48.782;9.190;2024-02-21T01:24:41;8.50;99.90
24632;DHT22;59977;48.782;9.190;2024-02-21T01:27:07;8.50;99.90
24632;DHT22;59977;48.782;9.190;2024-02-21T01:29:33;8.50;99.90
24632;DHT22;59977;48.782;9.190;2024-02-21T01:31:58;8.60;99.90
24632;DHT22;59977;48.782;9.190;2024-02-21T01:34:24;8.60;99.90
24632;DHT22;59977;48.782;9.190;2024-02-21T01:36:49;8.60;99.90
24632;DHT22;59977;48.782;9.190;2024-02-21T01:39:15;8.60;99.90
24632;DHT22;59977;48.782;9.190;2024-02-21T01:41:41;8.60;99.90
24632;DHT22;59977;48.782;9.190;2024-02-21T01:44:06;8.60;99.90
24632;DHT22;59977;48.782;9.190;2024-02-21T01:46:32;8.60;99.90
24632;DHT22;59977;48.782;9.190;2024-02-21T01:48:58;8.60;99.90
24632;DHT22;59977;48.782;9.190;2024-02-21T01:51:24;8.60;99.90
24632;DHT22;59977;48.782;9.190;2024-02-21T01:53:51;8.60;99.90
24632;DHT22;59977;48.782;9.190;2024-02-21T01:56:17;8.50;99.90
24632;DHT22;59977;48.782;9.190;2024-02-21T01:58:44;8.50;99.90
24632;DHT22;59977;48.782;9.190;2024-02-21T02:01:10;8.50;99.90
24632;DHT22;59977;48.782;9.190;2024-02-21T02:03:36;8.50;99.90
24632;DHT22;59977;48.782;9.190;2024-02-21T02:06:03;8.50;99.90
24632;DHT22;59977;48.782;9.190;2024-02-21T02:08:30;8.50;99.90
24632;DHT22;59977;48.782;9.190;2024-02-21T02:10:57;8.50;99.90
24632;DHT22;59977;48.782;9.190;2024-02-21T02:13:22;8.70;99.90
24632;DHT22;59977;48.782;9.190;2024-02-21T02:15:49;8.50;99.90
24632;DHT22;59977;48.782;9.190;2024-02-21T02:18:15;8.50;99.90
24632;DHT22;59977;48.782;9.190;2024-02-21T02:20:41;8.50;99.90
24632;DHT22;59977;48.782;9.190;2024-02-21T02:23:20;8.50;99.90
24632;DHT22;59977;48.782;9.190;2024-02-21T02:25:46;8.50;99.90
24632;DHT22;59977;48.782;9.190;2024-02-21T02:28:14;8.50;99.90
24632;DHT22;59977;48.782;9.190;2024-02-21T02:30:40;8.50;99.90
24632;DHT22;59977;48.782;9.190;2024-02-21T02:33:06;8.50;99.90
24632;DHT22;59977;48.782;9.190;2024-02-21T02:35:32;8.50;99.90
24632;DHT22;59977;48.782;9.190;2024-02-21T02:37:58;8.50;99.90
24632;DHT22;59977;48.782;9.190;2024-02-21T02:40:23;8.50;99.90
24632;DHT22;59977;48.782;9.190;2024-02-21T02:42:50;8.50;99.90
24632;DHT22;59977;48.782;9.190;2024-02-21T02:45:17;8.50;99.90
24632;DHT22;59977;48.782;9.190;2024-02-21T02:47:44;8.60;99.90
24632;DHT22;59977;48.782;9.190;2024-02-21T02:50:11;8.60;99.90
24632;DHT22;59977;48.782;9.190;2024-02-21T02:52:36;8.60;99.90
24632;DHT22;59977;48.782;9.190;2024-02-21T02:55:02;8.60;99.90
24632;DHT22;59977;48.782;9.190;2024-02-21T02:57:28;8.60;99.90
24632;DHT22;59977;48.782;9.190;2024-02-21T02:59:54;8.60;99.90
24632;DHT22;59977;48.782;9.190;2024-02-21T03:02:19;8.70;99.90
24632;DHT22;59977;48.782;9.190;2024-02-21T03:04:45;8.60;99.90
24632;DHT22;59977;48.782;9.190;2024-02-21T03:07:11;8.60;99.90
24632;DHT22;59977;48.782;9.190;2024-02-21T03:09:37;8.60;99.90
24632;DHT22;59977;48.782;9.190;2024-02-21T03:12:04;8.60;99.90
24632;DHT22;59977;48.782;9.190;2024-02-21T03:14:29;8.60;99.90
24632;DHT22;59977;48.782;9.190;2024-02-21T03:16:56;8.50;99.90
24632;DHT22;59977;48.782;9.190;2024-02-21T03:19:21;8.50;99.90
24632;DHT22;59977;48.782;9.190;2024-02-21T03:21:48;8.50;99.90
24632;DHT22;59977;48.782;9.190;2024-02-21T03:24:15;8.50;99.90
24632;DHT22;59977;48.782;9.190;2024-02-21T03:26:41;8.50;99.90
24632;DHT22;59977;48.782;9.190;2024-02-21T03:29:07;8.50;99.90
24632;DHT22;59977;48.782;9.190;2024-02-21T03:31:33;8.50;99.90
24632;DHT22;59977;48.782;9.190;2024-02-21T03:33:58;8.40;99.90
24632;DHT22;59977;48.782;9.190;2024-02-21T03:36:24;8.60;99.90
24632;DHT22;59977;48.782;9.190;2024-02-21T03:38:49;8.40;99.90
24632;DHT22;59977;48.782;9.190;2024-02-21T03:41:15;8.40;99.90
24632;DHT22;59977;48.782;9.190;2024-02-21T03:43:40;8.30;99.90
24632;DHT22;59977;48.782;9.190;2024-02-21T03:46:06;8.50;99.90
24632;DHT22;59977;48.782;9.190;2024-02-21T03:48:32;8.40;99.90
24632;DHT22;59977;48.782;9.190;2024-02-21T03:50:58;8.30;99.90
24632;DHT22;59977;48.782;9.190;2024-02-21T03:53:24;8.30;99.90
24632;DHT22;59977;48.782;9.190;2024-02-21T03:55:50;8.30;99.90
24632;DHT22;59977;48.782;9.190;2024-02-21T03:58:15;8.30;99.90
24632;DHT22;59977;48.782;9.190;2024-02-21T04:00:41;8.30;99.90
24632;DHT22;59977;48.782;9.190;2024-02-21T04:03:06;8.30;99.90
24632;DHT22;59977;48.782;9.190;2024-02-21T04:05:32;8.30;99.90
24632;DHT22;59977;48.782;9.190;2024-02-21T04:07:58;8.30;99.90
24632;DHT22;59977;48.782;9.190;2024-02-21T04:10:24;8.30;99.90
24632;DHT22;59977;48.782;9.190;2024-02-21T04:12:49;8.30;99.90
24632;DHT22;59977;48.782;9.190;2024-02-21T04:15:16;8.30;99.90
24632;DHT22;59977;48.782;9.190;2024-02-21T04:17:42;8.20;99.90
24632;DHT22;59977;48.782;9.190;2024-02-21T04:20:14;8.20;99.90
24632;DHT22;59977;48.782;9.190;2024-02-21T04:22:40;8.10;99.90
24632;DHT22;59977;48.782;9.190;2024-02-21T04:25:06;8.10;99.90
24632;DHT22;59977;48.782;9.190;2024-02-21T04:27:31;8.10;99.90
24632;DHT22;59977;48.782;9.190;2024-02-21T04:29:57;8.10;99.90
24632;DHT22;59977;48.782;9.190;2024-02-21T04:32:23;8.10;99.90
24632;DHT22;59977;48.782;9.190;2024-02-21T04:34:48;8.10;99.90
24632;DHT22;59977;48.782;9.190;2024-02-21T04:37:14;8.10;99.90
24632;DHT22;59977;48.782;9.190;2024-02-21T04:39:40;8.10;99.90
24632;DHT22;59977;48.782;9.190;2024-02-21T04:42:05;8.10;99.90
24632;DHT22;59977;48.782;9.190;2024-02-21T04:44:31;8.10;99.90
24632;DHT22;59977;48.782;9.190;2024-02-21T04:46:56;8.10;99.90
24632;DHT22;59977;48.782;9.190;2024-02-21T04:49:22;8.10;99.90
24632;DHT22;59977;48.782;9.190;2024-02-21T04:51:48;8.10;99.90
24632;DHT22;59977;48.782;9.190;2024-02-21T04:54:13;8.10;99.90
24632;DHT22;59977;48.782;9.190;2024-02-21T04:56:39;8.00;99.90
24632;DHT22;59977;48.782;9.190;2024-02-21T04:59:04;8.00;99.90
24632;DHT22;59977;48.782;9.190;2024-02-21T05:01:30;8.00;99.90
24632;DHT22;59977;48.782;9.190;2024-02-21T05:03:56;8.00;99.90
24632;DHT22;59977;48.782;9.190;2024-02-21T05:06:22;8.00;99.90
24632;DHT22;59977;48.782;9.190;2024-02-21T05:08:47;8.00;99.90
24632;DHT22;59977;48.782;9.190;2024-02-21T05:11:13;7.90;99.90
24632;DHT22;59977;48.782;9.190;2024-02-21T05:13:39;7.80;99.90
24632;DHT22;59977;48.782;9.190;2024-02-21T05:16:05;7.80;99.90
24632;DHT22;59977;48.782;9.190;2024-02-21T05:18:31;7.80;99.90
24632;DHT22;59977;48.782;9.190;2024-02-21T05:20:56;7.80;99.90
24632;DHT22;59977;48.782;9.190;2024-02-21T05:23:22;7.70;99.90
24632;DHT22;59977;48.782;9.190;2024-02-21T05:25:47;7.80;99.90
24632;DHT22;59977;48.782;9.190;2024-02-21T05:28:13;7.80;99.90
24632;DHT22;59977;48.782;9.190;2024-02-21T05:30:39;7.70;99.90
24632;DHT22;59977;48.782;9.190;2024-02-21T05:33:06;7.80;99.90
24632;DHT22;59977;48.782;9.190;2024-02-21T05:35:31;7.80;99.90
24632;DHT22;59977;48.782;9.190;2024-02-21T05:37:57;8.00;99.90
24632;DHT22;59977;48.782;9.190;2024-02-21T05:40:23;7.80;99.90
24632;DHT22;59977;48.782;9.190;2024-02-21T05:42:48;7.90;99.90
24632;DHT22;59977;48.782;9.190;2024-02-21T05:45:16;7.80;99.90
24632;DHT22;59977;48.782;9.190;2024-02-21T05:47:42;7.80;99.90
24632;DHT22;59977;48.782;9.190;2024-02-21T05:50:08;7.80;99.90
24632;DHT22;59977;48.782;9.190;2024-02-21T05:52:34;7.80;99.90
24632;DHT22;59977;48.782;9.190;2024-02-21T05:54:59;7.80;99.90
24632;DHT22;59977;48.782;9.190;2024-02-21T05:57:25;7.80;99.90
24632;DHT22;59977;48.782;9.190;2024-02-21T05:59:51;7.80;99.90
24632;DHT22;59977;48.782;9.190;2024-02-21T06:02:16;7.80;99.90
24632;DHT22;59977;48.782;9.190;2024-02-21T06:04:42;7.80;99.90
24632;DHT22;59977;48.782;9.190;2024-02-21T06:07:08;7.80;99.90
24632;DHT22;59977;48.782;9.190;2024-02-21T06:09:34;7.80;99.90
24632;DHT22;59977;48.782;9.190;2024-02-21T06:11:59;7.70;99.90
24632;DHT22;59977;48.782;9.190;2024-02-21T06:14:25;7.70;99.90
24632;DHT22;59977;48.782;9.190;2024-02-21T06:16:51;7.70;99.90
24632;DHT22;59977;48.782;9.190;2024-02-21T06:19:17;7.60;99.90
24632;DHT22;59977;48.782;9.190;2024-02-21T06:21:42;7.60;99.90
24632;DHT22;59977;48.782;9.190;2024-02-21T06:24:08;7.60;99.90
24632;DHT22;59977;48.782;9.190;2024-02-21T06:26:33;7.70;99.90
24632;DHT22;59977;48.782;9.190;2024-02-21T06:28:59;7.60;99.90
24632;DHT22;59977;48.782;9.190;2024-02-21T06:31:25;7.60;99.90
24632;DHT22;59977;48.782;9.190;2024-02-21T06:33:51;7.60;99.90
24632;DHT22;59977;48.782;9.190;2024-02-21T06:36:16;7.60;99.90
24632;DHT22;59977;48.782;9.190;2024-02-21T06:38:42;7.60;99.90
24632;DHT22;59977;48.782;9.190;2024-02-21T06:41:16;7.60;99.90
24632;DHT22;59977;48.782;9.190;2024-02-21T06:43:42;7.50;99.90
24632;DHT22;59977;48.782;9.190;2024-02-21T06:46:07;7.50;99.90
24632;DHT22;59977;48.782;9.190;2024-02-21T06:48:34;7.60;99.90
24632;DHT22;59977;48.782;9.190;2024-02-21T06:51:00;7.60;99.90
24632;DHT22;59977;48.782;9.190;2024-02-21T06:53:25;7.60;99.90
24632;DHT22;59977;48.782;9.190;2024-02-21T06:55:52;7.60;99.90
24632;DHT22;59977;48.782;9.190;2024-02-21T06:58:18;7.60;99.90
24632;DHT22;59977;48.782;9.190;2024-02-21T07:00:43;7.60;99.90
24632;DHT22;59977;48.782;9.190;2024-02-21T07:03:09;7.90;99.90
24632;DHT22;59977;48.782;9.190;2024-02-21T07:05:35;7.90;99.90
24632;DHT22;59977;48.782;9.190;2024-02-21T07:08:00;7.70;99.90
24632;DHT22;59977;48.782;9.190;2024-02-21T07:10:26;7.70;99.90
24632;DHT22;59977;48.782;9.190;2024-02-21T07:12:54;7.90;99.90
24632;DHT22;59977;48.782;9.190;2024-02-21T07:15:20;8.00;99.90
24632;DHT22;59977;48.782;9.190;2024-02-21T07:17:46;7.70;99.90
24632;DHT22;59977;48.782;9.190;2024-02-21T07:20:11;7.80;99.90
24632;DHT22;59977;48.782;9.190;2024-02-21T07:22:37;7.80;99.90
24632;DHT22;59977;48.782;9.190;2024-02-21T07:25:03;7.80;99.90
24632;DHT22;59977;48.782;9.190;2024-02-21T07:27:29;7.90;99.90
24632;DHT22;59977;48.782;9.190;2024-02-21T07:29:57;8.00;99.90
24632;DHT22;59977;48.782;9.190;2024-02-21T07:32:22;8.00;99.90
24632;DHT22;59977;48.782;9.190;2024-02-21T07:34:48;8.60;99.90
24632;DHT22;59977;48.782;9.190;2024-02-21T07:37:13;8.10;99.90
24632;DHT22;59977;48.782;9.190;2024-02-21T07:39:39;8.10;99.90
24632;DHT22;59977;48.782;9.190;2024-02-21T07:42:05;8.10;99.90
24632;DHT22;59977;48.782;9.190;2024-02-21T07:44:31;8.20;99.90
24632;DHT22;59977;48.782;9.190;2024-02-21T07:46:58;8.20;99.90
24632;DHT22;59977;48.782;9.190;2024-02-21T07:49:24;8.30;99.90
24632;DHT22;59977;48.782;9.190;2024-02-21T07:51:50;8.30;99.90
24632;DHT22;59977;48.782;9.190;2024-02-21T07:54:15;8.50;99.90
24632;DHT22;59977;48.782;9.190;2024-02-21T07:56:41;8.40;99.90
24632;DHT22;59977;48.782;9.190;2024-02-21T07:59:07;8.50;99.90
24632;DHT22;59977;48.782;9.190;2024-02-21T08:01:33;8.50;99.90
24632;DHT22;59977;48.782;9.190;2024-02-21T08:03:58;8.60;99.90
24632;DHT22;59977;48.782;9.190;2024-02-21T08:06:24;8.60;99.90
24632;DHT22;59977;48.782;9.190;2024-02-21T08:08:50;8.70;99.90
24632;DHT22;59977;48.782;9.190;2024-02-21T08:11:16;8.90;99.90
24632;DHT22;59977;48.782;9.190;2024-02-21T08:13:41;8.80;99.90
24632;DHT22;59977;48.782;9.190;2024-02-21T08:16:07;9.00;99.90
24632;DHT22;59977;48.782;9.190;2024-02-21T08:18:32;8.90;99.90
24632;DHT22;59977;48.782;9.190;2024-02-21T08:21:03;8.90;99.90
24632;DHT22;59977;48.782;9.190;2024-02-21T08:23:28;9.00;99.90
24632;DHT22;59977;48.782;9.190;2024-02-21T08:25:54;9.00;99.90
24632;DHT22;59977;48.782;9.190;2024-02-21T08:28:20;9.50;99.90
24632;DHT22;59977;48.782;9.190;2024-02-21T08:30:45;9.20;99.90
24632;DHT22;59977;48.782;9.190;2024-02-21T08:33:15;9.20;99.90
24632;DHT22;59977;48.782;9.190;2024-02-21T08:35:42;9.30;99.90
24632;DHT22;59977;48.782;9.190;2024-02-21T08:38:07;9.30;99.90
24632;DHT22;59977;48.782;9.190;2024-02-21T08:40:33;9.40;99.90
24632;DHT22;59977;48.782;9.190;2024-02-21T08:43:00;9.60;99.90
24632;DHT22;59977;48.782;9.190;2024-02-21T08:45:26;9.70;99.90
24632;DHT22;59977;48.782;9.190;2024-02-21T08:47:52;9.60;99.90
24632;DHT22;59977;48.782;9.190;2024-02-21T08:50:17;9.70;99.90
24632;DHT22;59977;48.782;9.190;2024-02-21T08:52:43;9.60;99.90
24632;DHT22;59977;48.782;9.190;2024-02-21T08:55:09;9.70;99.90
24632;DHT22;59977;48.782;9.190;2024-02-21T08:57:34;9.80;99.90
24632;DHT22;59977;48.782;9.190;2024-02-21T09:00:06;9.90;99.90
24632;DHT22;59977;48.782;9.190;2024-02-21T09:02:41;9.80;99.90
24632;DHT22;59977;48.782;9.190;2024-02-21T09:05:13;10.00;99.90
24632;DHT22;59977;48.782;9.190;2024-02-21T09:07:40;10.00;99.90
24632;DHT22;59977;48.782;9.190;2024-02-21T09:10:07;10.00;99.90
24632;DHT22;59977;48.782;9.190;2024-02-21T09:12:32;10.10;99.90
24632;DHT22;59977;48.782;9.190;2024-02-21T09:14:58;10.10;99.90
24632;DHT22;59977;48.782;9.190;2024-02-21T09:17:24;10.30;99.90
24632;DHT22;59977;48.782;9.190;2024-02-21T09:19:50;10.10;99.90
24632;DHT22;59977;48.782;9.190;2024-02-21T09:22:16;10.10;99.90
24632;DHT22;59977;48.782;9.190;2024-02-21T09:24:41;10.10;99.90
24632;DHT22;59977;48.782;9.190;2024-02-21T09:27:07;10.10;99.90
24632;DHT22;59977;48.782;9.190;2024-02-21T09:29:33;10.10;99.90
24632;DHT22;59977;48.782;9.190;2024-02-21T09:31:59;10.20;99.90
24632;DHT22;59977;48.782;9.190;2024-02-21T09:34:25;10.20;99.90
24632;DHT22;59977;48.782;9.190;2024-02-21T09:36:50;10.20;99.90
24632;DHT22;59977;48.782;9.190;2024-02-21T09:39:16;10.20;99.90
24632;DHT22;59977;48.782;9.190;2024-02-21T09:41:50;10.30;99.90
24632;DHT22;59977;48.782;9.190;2024-02-21T09:44:32;10.40;99.90
24632;DHT22;59977;48.782;9.190;2024-02-21T09:47:02;10.50;99.90
24632;DHT22;59977;48.782;9.190;2024-02-21T09:49:34;10.70;99.90
24632;DHT22;59977;48.782;9.190;2024-02-21T09:52:02;10.70;99.90
24632;DHT22;59977;48.782;9.190;2024-02-21T09:54:29;10.80;99.90
24632;DHT22;59977;48.782;9.190;2024-02-21T09:56:56;10.80;99.90
24632;DHT22;59977;48.782;9.190;2024-02-21T09:59:22;10.90;99.90
24632;DHT22;59977;48.782;9.190;2024-02-21T10:01:49;11.00;99.90
24632;DHT22;59977;48.782;9.190;2024-02-21T10:04:16;11.10;99.90
24632;DHT22;59977;48.782;9.190;2024-02-21T10:06:42;11.30;99.90
24632;DHT22;59977;48.782;9.190;2024-02-21T10:09:08;11.20;99.90
24632;DHT22;59977;48.782;9.190;2024-02-21T10:11:34;11.30;99.90
24632;DHT22;59977;48.782;9.190;2024-02-21T10:16:33;11.40;99.90
24632;DHT22;59977;48.782;9.190;2024-02-21T10:18:59;11.40;99.90
24632;DHT22;59977;48.782;9.190;2024-02-21T10:21:25;11.40;99.90
24632;DHT22;59977;48.782;9.190;2024-02-21T10:23:51;11.50;99.90
24632;DHT22;59977;48.782;9.190;2024-02-21T10:26:20;11.60;99.90
24632;DHT22;59977;48.782;9.190;2024-02-21T10:28:49;11.60;99.90
24632;DHT22;59977;48.782;9.190;2024-02-21T10:31:27;11.70;99.90
24632;DHT22;59977;48.782;9.190;2024-02-21T10:33:59;11.80;99.90
24632;DHT22;59977;48.782;9.190;2024-02-21T10:36:25;11.80;99.90
24632;DHT22;59977;48.782;9.190;2024-02-21T10:38:52;11.90;99.90
24632;DHT22;59977;48.782;9.190;2024-02-21T10:41:19;12.00;99.90
24632;DHT22;59977;48.782;9.190;2024-02-21T10:43:50;12.10;99.90
24632;DHT22;59977;48.782;9.190;2024-02-21T10:46:19;12.10;99.90
24632;DHT22;59977;48.782;9.190;2024-02-21T10:48:46;12.20;99.90
24632;DHT22;59977;48.782;9.190;2024-02-21T10:51:16;12.30;99.90
24632;DHT22;59977;48.782;9.190;2024-02-21T10:58:53;12.30;99.90
24632;DHT22;59977;48.782;9.190;2024-02-21T11:01:19;12.20;99.90
24632;DHT22;59977;48.782;9.190;2024-02-21T11:03:46;12.20;99.90
24632;DHT22;59977;48.782;9.190;2024-02-21T11:06:13;12.20;99.90
24632;DHT22;59977;48.782;9.190;2024-02-21T11:08:40;12.20;99.90
24632;DHT22;59977;48.782;9.190;2024-02-21T11:11:06;12.20;99.90
24632;DHT22;59977;48.782;9.190;2024-02-21T11:13:34;12.30;99.90
24632;DHT22;59977;48.782;9.190;2024-02-21T11:16:10;12.40;99.90
24632;DHT22;59977;48.782;9.190;2024-02-21T11:18:39;12.50;99.90
24632;DHT22;59977;48.782;9.190;2024-02-21T11:21:05;12.60;99.90
24632;DHT22;59977;48.782;9.190;2024-02-21T11:23:32;12.60;99.90
24632;DHT22;59977;48.782;9.190;2024-02-21T11:26:07;12.60;99.90
24632;DHT22;59977;48.782;9.190;2024-02-21T11:28:33;12.60;99.90
24632;DHT22;59977;48.782;9.190;2024-02-21T11:31:13;12.80;99.90
24632;DHT22;59977;48.782;9.190;2024-02-21T11:36:28;12.90;99.90
24632;DHT22;59977;48.782;9.190;2024-02-21T11:39:03;12.90;99.90
24632;DHT22;59977;48.782;9.190;2024-02-21T11:41:30;13.00;99.90
24632;DHT22;59977;48.782;9.190;2024-02-21T11:43:55;13.00;99.90
24632;DHT22;59977;48.782;9.190;2024-02-21T11:46:23;13.10;99.90
24632;DHT22;59977;48.782;9.190;2024-02-21T11:48:49;13.20;99.90
24632;DHT22;59977;48.782;9.190;2024-02-21T11:51:24;13.10;99.90
24632;DHT22;59977;48.782;9.190;2024-02-21T11:53:51;13.00;99.90
24632;DHT22;59977;48.782;9.190;2024-02-21T11:56:17;13.00;99.90
24632;DHT22;59977;48.782;9.190;2024-02-21T11:58:43;13.30;99.90
24632;DHT22;59977;48.782;9.190;2024-02-21T12:01:09;13.50;99.90
24632;DHT22;59977;48.782;9.190;2024-02-21T12:03:35;13.20;99.90
24632;DHT22;59977;48.782;9.190;2024-02-21T12:06:05;14.30;99.80
24632;DHT22;59977;48.782;9.190;2024-02-21T12:08:44;13.20;98.70
24632;DHT22;59977;48.782;9.190;2024-02-21T12:11:35;13.30;98.90
24632;DHT22;59977;48.782;9.190;2024-02-21T12:14:02;13.30;98.30
24632;DHT22;59977;48.782;9.190;2024-02-21T12:16:33;13.30;98.20
24632;DHT22;59977;48.782;9.190;2024-02-21T12:19:00;13.30;98.30
24632;DHT22;59977;48.782;9.190;2024-02-21T12:21:35;13.40;97.80
24632;DHT22;59977;48.782;9.190;2024-02-21T12:24:14;13.60;97.70
24632;DHT22;59977;48.782;9.190;2024-02-21T12:26:41;13.60;97.70
24632;DHT22;59977;48.782;9.190;2024-02-21T12:29:07;13.70;96.80
24632;DHT22;59977;48.782;9.190;2024-02-21T12:31:37;13.60;95.90
24632;DHT22;59977;48.782;9.190;2024-02-21T12:34:03;13.60;96.00
24632;DHT22;59977;48.782;9.190;2024-02-21T12:36:35;13.60;95.20
24632;DHT22;59977;48.782;9.190;2024-02-21T12:39:01;13.60;95.50
24632;DHT22;59977;48.782;9.190;2024-02-21T12:41:28;13.60;95.00
24632;DHT22;59977;48.782;9.190;2024-02-21T12:43:55;13.60;94.90
24632;DHT22;59977;48.782;9.190;2024-02-21T12:46:23;13.70;94.00
24632;DHT22;59977;48.782;9.190;2024-02-21T12:48:49;13.70;93.50
24632;DHT22;59977;48.782;9.190;2024-02-21T12:51:15;13.60;93.00
24632;DHT22;59977;48.782;9.190;2024-02-21T12:53:41;13.50;93.00
24632;DHT22;59977;48.782;9.190;2024-02-21T12:56:07;13.60;92.70
24632;DHT22;59977;48.782;9.190;2024-02-21T12:58:33;13.70;93.50
24632;DHT22;59977;48.782;9.190;2024-02-21T13:00:58;13.80;93.10
24632;DHT22;59977;48.782;9.190;2024-02-21T13:03:24;13.90;92.80
24632;DHT22;59977;48.782;9.190;2024-02-21T13:05:51;14.00;92.70
24632;DHT22;59977;48.782;9.190;2024-02-21T13:08:16;14.00;92.60
24632;DHT22;59977;48.782;9.190;2024-02-21T13:10:43;14.00;92.20
24632;DHT22;59977;48.782;9.190;2024-02-21T13:13:09;14.00;92.00
24632;DHT22;59977;48.782;9.190;2024-02-21T13:15:34;14.00;91.90
24632;DHT22;59977;48.782;9.190;2024-02-21T13:18:00;14.10;92.00
24632;DHT22;59977;48.782;9.190;2024-02-21T13:20:26;14.10;91.10
24632;DHT22;59977;48.782;9.190;2024-02-21T13:22:52;14.00;91.10
24632;DHT22;59977;48.782;9.190;2024-02-21T13:25:18;14.20;91.30
24632;DHT22;59977;48.782;9.190;2024-02-21T13:27:46;14.00;91.30
24632;DHT22;59977;48.782;9.190;2024-02-21T13:30:12;14.20;90.60
24632;DHT22;59977;48.782;9.190;2024-02-21T13:32:42;14.10;90.80
24632;DHT22;59977;48.782;9.190;2024-02-21T13:35:09;14.10;90.60
24632;DHT22;59977;48.782;9.190;2024-02-21T13:37:37;14.20;90.10
24632;DHT22;59977;48.782;9.190;2024-02-21T13:40:03;14.20;89.70
24632;DHT22;59977;48.782;9.190;2024-02-21T13:42:29;14.10;88.90
24632;DHT22;59977;48.782;9.190;2024-02-21T13:44:55;14.10;88.20
24632;DHT22;59977;48.782;9.190;2024-02-21T13:47:21;14.10;88.00
24632;DHT22;59977;48.782;9.190;2024-02-21T13:49:46;14.00;87.90
24632;DHT22;59977;48.782;9.190;2024-02-21T13:52:13;14.10;87.60
24632;DHT22;59977;48.782;9.190;2024-02-21T13:54:38;14.10;87.10
24632;DHT22;59977;48.782;9.190;2024-02-21T13:57:04;14.20;88.10
24632;DHT22;59977;48.782;9.190;2024-02-21T13:59:30;14.00;87.10
24632;DHT22;59977;48.782;9.190;2024-02-21T14:01:55;14.00;87.60
24632;DHT22;59977;48.782;9.190;2024-02-21T14:04:21;14.00;87.00
24632;DHT22;59977;48.782;9.190;2024-02-21T14:06:47;14.00;87.70
24632;DHT22;59977;48.782;9.190;2024-02-21T14:09:13;14.00;88.20
24632;DHT22;59977;48.782;9.190;2024-02-21T14:11:39;14.00;87.60
24632;DHT22;59977;48.782;9.190;2024-02-21T14:14:06;14.00;87.60
24632;DHT22;59977;48.782;9.190;2024-02-21T14:16:32;14.00;87.90
24632;DHT22;59977;48.782;9.190;2024-02-21T14:18:58;14.00;87.40
24632;DHT22;59977;48.782;9.190;2024-02-21T14:21:24;13.90;88.50
24632;DHT22;59977;48.782;9.190;2024-02-21T14:23:50;13.90;88.40
24632;DHT22;59977;48.782;9.190;2024-02-21T14:26:16;13.90;88.00
24632;DHT22;59977;48.782;9.190;2024-02-21T14:28:42;13.90;88.30
24632;DHT22;59977;48.782;9.190;2024-02-21T14:31:08;13.90;87.80
24632;DHT22;59977;48.782;9.190;2024-02-21T14:33:38;13.90;86.70
24632;DHT22;59977;48.782;9.190;2024-02-21T14:36:04;13.90;87.50
24632;DHT22;59977;48.782;9.190;2024-02-21T14:38:30;13.80;87.30
24632;DHT22;59977;48.782;9.190;2024-02-21T14:40:55;13.90;87.20
24632;DHT22;59977;48.782;9.190;2024-02-21T14:43:21;13.80;87.20
24632;DHT22;59977;48.782;9.190;2024-02-21T14:45:50;14.00;86.90
24632;DHT22;59977;48.782;9.190;2024-02-21T14:48:15;13.90;87.10
24632;DHT22;59977;48.782;9.190;2024-02-21T14:50:41;13.90;86.40
24632;DHT22;59977;48.782;9.190;2024-02-21T14:53:10;14.00;85.60
24632;DHT22;59977;48.782;9.190;2024-02-21T14:55:36;13.90;85.00
24632;DHT22;59977;48.782;9.190;2024-02-21T14:58:01;13.80;85.00
24632;DHT22;59977;48.782;9.190;2024-02-21T15:00:27;13.80;84.20
24632;DHT22;59977;48.782;9.190;2024-02-21T15:02:59;13.80;84.60
24632;DHT22;59977;48.782;9.190;2024-02-21T15:05:25;13.80;82.40
24632;DHT22;59977;48.782;9.190;2024-02-21T15:07:52;13.70;84.80
24632;DHT22;59977;48.782;9.190;2024-02-21T15:10:18;13.70;83.70
24632;DHT22;59977;48.782;9.190;2024-02-21T15:12:47;13.70;83.80
24632;DHT22;59977;48.782;9.190;2024-02-21T15:15:14;13.60;84.60
24632;DHT22;59977;48.782;9.190;2024-02-21T15:17:40;13.70;84.30
24632;DHT22;59977;48.782;9.190;2024-02-21T15:20:06;13.60;85.10
24632;DHT22;59977;48.782;9.190;2024-02-21T15:22:36;13.60;85.60
24632;DHT22;59977;48.782;9.190;2024-02-21T15:25:02;13.60;86.40
24632;DHT22;59977;48.782;9.190;2024-02-21T15:27:31;13.60;86.80
24632;DHT22;59977;48.782;9.190;2024-02-21T15:29:57;13.60;87.20
24632;DHT22;59977;48.782;9.190;2024-02-21T15:32:23;13.50;87.30
24632;DHT22;59977;48.782;9.190;2024-02-21T15:34:49;13.60;87.90
24632;DHT22;59977;48.782;9.190;2024-02-21T15:37:15;13.60;88.30
24632;DHT22;59977;48.782;9.190;2024-02-21T15:39:41;13.60;88.70
24632;DHT22;59977;48.782;9.190;2024-02-21T15:42:08;13.80;88.10
24632;DHT22;59977;48.782;9.190;2024-02-21T15:44:34;13.60;88.30
24632;DHT22;59977;48.782;9.190;2024-02-21T15:47:01;13.60;89.60